Fort Hood, Texas
Current Conditions -  °F | °C
As of 5:56 PM on Friday 28 Nov 2014 (Local Time) from KHLR Reporting Station
Clear Clear  
Wind Chill: 67°   Ceiling: Unl
Heat Index: 67°   Visibility: 10mi
Dew Point: 47°   Wind: 8mph
Humidity: 49%   Direction: 160°SSE
Pressure: 30.08"   Gusts: NA
Location:  31.2151°N, 97.7405°W
Report Text: KHLR 282356Z AUTO 16007KT 10SM CLR 19/08 A3008 RMK AO2 SLP217 T01940083 10233 20194 56005 $
Loading
Personal Weather Stations






























Interactive Weather Map New forecast layout! Learn more

10-Day Weather Forecast

Advertisements
Track Severe Weather on mobile